Captain Duane Patrick — WDE8361 — position and weather

sailwx.info

Track history (hours):
 
Tides and Currents Weather Stations Pressure Air Temp Water Temp Dewpoint Dewpoint Depression Visibility Wind Speed Wind Dir Waves Ship Positions

Captain Duane Patrick

Owner: Lafayette Workboat Rentals LLC., Broussard, LA. More information available from US FCC via Universal Licensing System and Coast Guard Vessel Documentation Center.

Last reported at 2017-Oct-19 20:08 UTC. Time now 2017-Oct-20 12:42 UTC.
Position N 29°31' W 094°53'.

Length 18 m.

MMSI: 367404580.

Date/timePositionNaut miles runAvg speedWind from/ knotsBaromVisibWave heightAir tempDewpointWater temp
2017-Oct-19 20:08N 29°31' W 094°53'1 6.7
2017-Oct-19 19:59N 29°32' W 094°54'3 6.7
2017-Oct-19 19:30N 29°34' W 094°56'3 6.8
2017-Oct-19 19:00N 29°37' W 094°58'4 7.3
2017-Oct-19 18:30N 29°41' W 094°59'9 5.6
2017-Oct-19 16:59N 29°44' W 095°08'5 6.1
2017-Oct-19 16:13N 29°44' W 095°13'2 6.3
2017-Oct-19 15:58N 29°43' W 095°15'1 2.1
2017-Oct-19 15:30N 29°43' W 095°16'0 0.0
2017-Oct-19 15:01N 29°43' W 095°16'0 0.2
2017-Oct-19 14:30N 29°43' W 095°16'0 0.3
2017-Oct-19 14:00N 29°43' W 095°16'0 0.0
2017-Oct-19 13:31N 29°43' W 095°16'0 0.1
2017-Oct-19 12:53N 29°43' W 095°16'0 0.1
2017-Oct-19 12:12N 29°43' W 095°16'0 0.0
2017-Oct-19 12:00N 29°43' W 095°16'0 0.0
2017-Oct-19 11:31N 29°43' W 095°16'0 0.0
2017-Oct-19 10:59N 29°43' W 095°16'0 0.0
2017-Oct-19 10:30N 29°43' W 095°16'0 0.0
2017-Oct-19 10:00N 29°43' W 095°16'0 0.0
2017-Oct-19 09:29N 29°43' W 095°16'0 0.0
2017-Oct-19 09:00N 29°43' W 095°16'0 0.0
2017-Oct-19 08:29N 29°43' W 095°16'0 0.0
2017-Oct-19 07:58N 29°43' W 095°16'0 0.0
2017-Oct-19 07:30N 29°43' W 095°16'0 0.0
2017-Oct-19 07:00N 29°43' W 095°16'0 0.0
2017-Oct-19 06:31N 29°43' W 095°16'0 0.0
2017-Oct-19 06:00N 29°43' W 095°16'0 0.0
2017-Oct-19 05:28N 29°43' W 095°16'0 0.0
2017-Oct-19 04:58N 29°43' W 095°16'0 0.0
2017-Oct-19 04:30N 29°43' W 095°16'0 0.0
2017-Oct-19 04:00N 29°43' W 095°16'0 0.0
2017-Oct-19 03:30N 29°43' W 095°16'0 0.0
2017-Oct-19 03:00N 29°43' W 095°16'0 0.0
2017-Oct-19 02:30N 29°43' W 095°16'0 0.0
2017-Oct-19 02:01N 29°43' W 095°16'0 0.0
2017-Oct-19 01:30N 29°43' W 095°16'0 0.0
2017-Oct-19 01:01N 29°43' W 095°16'0 0.0
2017-Oct-19 00:30N 29°43' W 095°16'0 0.0
2017-Oct-19 00:00N 29°43' W 095°16'0 0.0
2017-Oct-18 23:31N 29°43' W 095°16'0 0.0
2017-Oct-18 23:00N 29°43' W 095°16'0 0.0
2017-Oct-18 22:30N 29°43' W 095°16'0 0.0
2017-Oct-18 22:00N 29°43' W 095°16'0 0.0
2017-Oct-18 21:30N 29°43' W 095°16'0 0.0
2017-Oct-18 20:59N 29°43' W 095°16'0 0.0
2017-Oct-18 20:31N 29°43' W 095°16'0 0.4
2017-Oct-18 20:01N 29°44' W 095°16'0 0.2
2017-Oct-18 19:06N 29°43' W 095°16'0 0.5
2017-Oct-18 18:59N 29°43' W 095°16'0 0.1
2017-Oct-18 18:30N 29°43' W 095°16'0 0.0
2017-Oct-18 18:00N 29°43' W 095°16'0 0.0
2017-Oct-18 17:29N 29°43' W 095°16'0 0.0
2017-Oct-18 17:00N 29°43' W 095°16'0 0.0
2017-Oct-18 16:30N 29°43' W 095°16'0 0.0
2017-Oct-18 15:55N 29°43' W 095°16'0 0.0
2017-Oct-18 15:30N 29°43' W 095°16'0 0.0
2017-Oct-18 15:00N 29°43' W 095°16'0 0.0
2017-Oct-18 14:01N 29°43' W 095°16'0 0.0
2017-Oct-18 13:30N 29°43' W 095°16'0 0.0
2017-Oct-18 13:00N 29°43' W 095°16'0 0.0
2017-Oct-18 12:30N 29°43' W 095°16'0 0.0
2017-Oct-18 12:00N 29°43' W 095°16'0 0.0
2017-Oct-18 11:30N 29°43' W 095°16'0 0.0
2017-Oct-18 11:00N 29°43' W 095°16'0 0.0
2017-Oct-18 10:30N 29°43' W 095°16'0 0.0
2017-Oct-18 10:00N 29°43' W 095°16'0 0.0
2017-Oct-18 09:30N 29°43' W 095°16'0 0.0
2017-Oct-18 09:00N 29°43' W 095°16'0 0.0
2017-Oct-18 08:30N 29°43' W 095°16'0 0.0
2017-Oct-18 08:00N 29°43' W 095°16'0 0.0
2017-Oct-18 07:31N 29°43' W 095°16'0 0.0
2017-Oct-18 07:01N 29°43' W 095°16'0 0.0
2017-Oct-18 06:30N 29°43' W 095°16'0 0.0
2017-Oct-18 06:00N 29°43' W 095°16'0 0.0
2017-Oct-18 05:30N 29°43' W 095°16'0 0.3
2017-Oct-18 05:00N 29°43' W 095°16'1 2.9
2017-Oct-18 04:30N 29°43' W 095°15'3 6.4
2017-Oct-18 04:00N 29°45' W 095°12'3 6.6
2017-Oct-18 03:29N 29°44' W 095°08'4 4.9
2017-Oct-18 02:46N 29°44' W 095°04'2 6.8
2017-Oct-18 02:30N 29°44' W 095°02'3 6.3
2017-Oct-18 02:01N 29°41' W 094°59'4 7.2
2017-Oct-18 01:30N 29°38' W 094°58'4 7.2
2017-Oct-18 01:01N 29°35' W 094°56'  
2017-Oct-14 23:50N 29°31' W 094°53'3 7.6
2017-Oct-14 23:30N 29°33' W 094°54'4 7.4
2017-Oct-14 23:00N 29°36' W 094°57'4 7.2
2017-Oct-14 22:30N 29°39' W 094°58'4 7.1
2017-Oct-14 22:00N 29°42' W 095°01'7 5.3
2017-Oct-14 20:36N 29°44' W 095°09'0 0.0
2017-Oct-14 11:45N 29°44' W 095°09'7 5.8
2017-Oct-14 10:37N 29°43' W 095°01'1 7.6
2017-Oct-14 10:30N 29°42' W 095°01'4 7.3
2017-Oct-14 10:01N 29°40' W 094°58'4 8.0
2017-Oct-14 09:30N 29°36' W 094°57'4 8.0
2017-Oct-14 09:00N 29°33' W 094°54'34 1.4
2017-Oct-13 08:10N 29°03' W 095°13'2 5.4
2017-Oct-13 07:53N 29°04' W 095°13'32 4.8
2017-Oct-13 01:16N 29°31' W 094°53'2 6.9
2017-Oct-13 01:01N 29°32' W 094°54'3 6.9
2017-Oct-13 00:31N 29°35' W 094°56'3 6.8
2017-Oct-13 00:00N 29°38' W 094°58'4 7.5
2017-Oct-12 23:31N 29°42' W 094°60'3 6.2
2017-Oct-12 23:00N 29°44' W 095°03'5 5.4
2017-Oct-12 22:07N 29°44' W 095°08'1 7.2
2017-Oct-12 21:59N 29°44' W 095°09'4 6.1
2017-Oct-12 21:18N 29°43' W 095°14'2 6.0
2017-Oct-12 21:00N 29°44' W 095°16'0 0.8
2017-Oct-12 20:29N 29°43' W 095°16'0 0.1
2017-Oct-12 20:01N 29°43' W 095°16'0 0.0
2017-Oct-12 19:30N 29°43' W 095°16'0 0.2
2017-Oct-12 18:58N 29°43' W 095°16'0 0.0
2017-Oct-12 18:30N 29°43' W 095°16'0 0.0
2017-Oct-12 17:53N 29°43' W 095°16'0 0.0
2017-Oct-12 17:27N 29°43' W 095°16'0 0.0
2017-Oct-12 16:41N 29°43' W 095°16'0 0.0
2017-Oct-12 16:27N 29°43' W 095°16'0 0.0
2017-Oct-12 15:23N 29°43' W 095°16'0 0.0
2017-Oct-12 14:56N 29°43' W 095°16'0 0.0
2017-Oct-12 14:26N 29°43' W 095°16'0 0.0
2017-Oct-12 13:53N 29°43' W 095°16'0 0.0
2017-Oct-12 13:17N 29°43' W 095°16'0 0.0
2017-Oct-12 12:56N 29°43' W 095°16'0 0.0
2017-Oct-12 12:22N 29°43' W 095°16'0 0.0
2017-Oct-12 11:55N 29°43' W 095°16'0 0.0
2017-Oct-12 11:30N 29°43' W 095°16'0 0.0
2017-Oct-12 10:59N 29°43' W 095°16'0 0.0
2017-Oct-12 10:30N 29°43' W 095°16'0 0.0
2017-Oct-12 09:59N 29°43' W 095°16'0 0.0
2017-Oct-12 09:25N 29°43' W 095°16'0 0.0
2017-Oct-12 08:59N 29°43' W 095°16'0 0.0
2017-Oct-12 08:27N 29°43' W 095°16'0 0.0
2017-Oct-12 07:45N 29°43' W 095°16'0 0.0
2017-Oct-12 07:25N 29°43' W 095°16'0 0.0
2017-Oct-12 06:59N 29°43' W 095°16'0 0.0
2017-Oct-12 06:30N 29°43' W 095°16'0 0.0
2017-Oct-12 06:00N 29°43' W 095°16'0 0.0
2017-Oct-12 05:30N 29°43' W 095°16'0 0.0
2017-Oct-12 05:00N 29°43' W 095°16'0 0.2
2017-Oct-12 04:30N 29°43' W 095°16'0 0.0
2017-Oct-12 04:00N 29°43' W 095°16'0 0.0
2017-Oct-12 03:30N 29°43' W 095°16'0 0.0
2017-Oct-12 03:00N 29°43' W 095°16'0 0.0
2017-Oct-12 02:30N 29°43' W 095°16'0 0.0
2017-Oct-12 02:00N 29°43' W 095°16'0 0.0
2017-Oct-12 01:31N 29°43' W 095°16'0 0.0
2017-Oct-12 00:59N 29°43' W 095°16'0 0.0
2017-Oct-12 00:30N 29°43' W 095°16'0 0.0
2017-Oct-12 00:00N 29°43' W 095°16'0 0.0
2017-Oct-11 23:30N 29°43' W 095°16'0 0.0
2017-Oct-11 22:59N 29°43' W 095°16'0 0.0
2017-Oct-11 21:59N 29°43' W 095°16'0 0.2
2017-Oct-11 21:30N 29°43' W 095°16'0 0.1
2017-Oct-11 19:55N 29°43' W 095°16'0 0.0
2017-Oct-11 19:28N 29°43' W 095°16'0 0.0
2017-Oct-11 18:48N 29°43' W 095°16'0 0.6
2017-Oct-11 18:30N 29°43' W 095°16'23 0.5
2017-Oct-09 20:09N 29°32' W 094°53'  
Track history (hours):
 
Tides and Currents Weather Stations Pressure Air Temp Water Temp Dewpoint Dewpoint Depression Visibility Wind Speed Wind Dir Waves Ship Positions

Captain Duane Patrick

Owner: Lafayette Workboat Rentals LLC., Broussard, LA. More information available from US FCC via Universal Licensing System and Coast Guard Vessel Documentation Center.

Last reported at 2017-Oct-19 20:08 UTC. Time now 2017-Oct-20 12:42 UTC.
Position N 29°31' W 094°53'.

Length 18 m.

MMSI: 367404580.

Date/timePositionNaut miles runAvg speedWind from/ knotsBaromVisibWave heightAir tempDewpointWater temp
2017-Oct-19 20:08N 29°31' W 094°53'1 6.7
2017-Oct-19 19:59N 29°32' W 094°54'3 6.7
2017-Oct-19 19:30N 29°34' W 094°56'3 6.8
2017-Oct-19 19:00N 29°37' W 094°58'4 7.3
2017-Oct-19 18:30N 29°41' W 094°59'9 5.6
2017-Oct-19 16:59N 29°44' W 095°08'5 6.1
2017-Oct-19 16:13N 29°44' W 095°13'2 6.3
2017-Oct-19 15:58N 29°43' W 095°15'1 2.1
2017-Oct-19 15:30N 29°43' W 095°16'0 0.0
2017-Oct-19 15:01N 29°43' W 095°16'0 0.2
2017-Oct-19 14:30N 29°43' W 095°16'0 0.3
2017-Oct-19 14:00N 29°43' W 095°16'0 0.0
2017-Oct-19 13:31N 29°43' W 095°16'0 0.1
2017-Oct-19 12:53N 29°43' W 095°16'0 0.1
2017-Oct-19 12:12N 29°43' W 095°16'0 0.0
2017-Oct-19 12:00N 29°43' W 095°16'0 0.0
2017-Oct-19 11:31N 29°43' W 095°16'0 0.0
2017-Oct-19 10:59N 29°43' W 095°16'0 0.0
2017-Oct-19 10:30N 29°43' W 095°16'0 0.0
2017-Oct-19 10:00N 29°43' W 095°16'0 0.0
2017-Oct-19 09:29N 29°43' W 095°16'0 0.0
2017-Oct-19 09:00N 29°43' W 095°16'0 0.0
2017-Oct-19 08:29N 29°43' W 095°16'0 0.0
2017-Oct-19 07:58N 29°43' W 095°16'0 0.0
2017-Oct-19 07:30N 29°43' W 095°16'0 0.0
2017-Oct-19 07:00N 29°43' W 095°16'0 0.0
2017-Oct-19 06:31N 29°43' W 095°16'0 0.0
2017-Oct-19 06:00N 29°43' W 095°16'0 0.0
2017-Oct-19 05:28N 29°43' W 095°16'0 0.0
2017-Oct-19 04:58N 29°43' W 095°16'0 0.0
2017-Oct-19 04:30N 29°43' W 095°16'0 0.0
2017-Oct-19 04:00N 29°43' W 095°16'0 0.0
2017-Oct-19 03:30N 29°43' W 095°16'0 0.0
2017-Oct-19 03:00N 29°43' W 095°16'0 0.0
2017-Oct-19 02:30N 29°43' W 095°16'0 0.0
2017-Oct-19 02:01N 29°43' W 095°16'0 0.0
2017-Oct-19 01:30N 29°43' W 095°16'0 0.0
2017-Oct-19 01:01N 29°43' W 095°16'0 0.0
2017-Oct-19 00:30N 29°43' W 095°16'0 0.0
2017-Oct-19 00:00N 29°43' W 095°16'0 0.0
2017-Oct-18 23:31N 29°43' W 095°16'0 0.0
2017-Oct-18 23:00N 29°43' W 095°16'0 0.0
2017-Oct-18 22:30N 29°43' W 095°16'0 0.0
2017-Oct-18 22:00N 29°43' W 095°16'0 0.0
2017-Oct-18 21:30N 29°43' W 095°16'0 0.0
2017-Oct-18 20:59N 29°43' W 095°16'0 0.0
2017-Oct-18 20:31N 29°43' W 095°16'0 0.4
2017-Oct-18 20:01N 29°44' W 095°16'0 0.2
2017-Oct-18 19:06N 29°43' W 095°16'0 0.5
2017-Oct-18 18:59N 29°43' W 095°16'0 0.1
2017-Oct-18 18:30N 29°43' W 095°16'0 0.0
2017-Oct-18 18:00N 29°43' W 095°16'0 0.0
2017-Oct-18 17:29N 29°43' W 095°16'0 0.0
2017-Oct-18 17:00N 29°43' W 095°16'0 0.0
2017-Oct-18 16:30N 29°43' W 095°16'0 0.0
2017-Oct-18 15:55N 29°43' W 095°16'0 0.0
2017-Oct-18 15:30N 29°43' W 095°16'0 0.0
2017-Oct-18 15:00N 29°43' W 095°16'0 0.0
2017-Oct-18 14:01N 29°43' W 095°16'0 0.0
2017-Oct-18 13:30N 29°43' W 095°16'0 0.0
2017-Oct-18 13:00N 29°43' W 095°16'0 0.0
2017-Oct-18 12:30N 29°43' W 095°16'0 0.0
2017-Oct-18 12:00N 29°43' W 095°16'0 0.0
2017-Oct-18 11:30N 29°43' W 095°16'0 0.0
2017-Oct-18 11:00N 29°43' W 095°16'0 0.0
2017-Oct-18 10:30N 29°43' W 095°16'0 0.0
2017-Oct-18 10:00N 29°43' W 095°16'0 0.0
2017-Oct-18 09:30N 29°43' W 095°16'0 0.0
2017-Oct-18 09:00N 29°43' W 095°16'0 0.0
2017-Oct-18 08:30N 29°43' W 095°16'0 0.0
2017-Oct-18 08:00N 29°43' W 095°16'0 0.0
2017-Oct-18 07:31N 29°43' W 095°16'0 0.0
2017-Oct-18 07:01N 29°43' W 095°16'0 0.0
2017-Oct-18 06:30N 29°43' W 095°16'0 0.0
2017-Oct-18 06:00N 29°43' W 095°16'0 0.0
2017-Oct-18 05:30N 29°43' W 095°16'0 0.3
2017-Oct-18 05:00N 29°43' W 095°16'1 2.9
2017-Oct-18 04:30N 29°43' W 095°15'3 6.4
2017-Oct-18 04:00N 29°45' W 095°12'3 6.6
2017-Oct-18 03:29N 29°44' W 095°08'4 4.9
2017-Oct-18 02:46N 29°44' W 095°04'2 6.8
2017-Oct-18 02:30N 29°44' W 095°02'3 6.3
2017-Oct-18 02:01N 29°41' W 094°59'4 7.2
2017-Oct-18 01:30N 29°38' W 094°58'4 7.2
2017-Oct-18 01:01N 29°35' W 094°56'  
2017-Oct-14 23:50N 29°31' W 094°53'3 7.6
2017-Oct-14 23:30N 29°33' W 094°54'4 7.4
2017-Oct-14 23:00N 29°36' W 094°57'4 7.2
2017-Oct-14 22:30N 29°39' W 094°58'4 7.1
2017-Oct-14 22:00N 29°42' W 095°01'7 5.3
2017-Oct-14 20:36N 29°44' W 095°09'0 0.0
2017-Oct-14 11:45N 29°44' W 095°09'7 5.8
2017-Oct-14 10:37N 29°43' W 095°01'1 7.6
2017-Oct-14 10:30N 29°42' W 095°01'4 7.3
2017-Oct-14 10:01N 29°40' W 094°58'4 8.0
2017-Oct-14 09:30N 29°36' W 094°57'4 8.0
2017-Oct-14 09:00N 29°33' W 094°54'34 1.4
2017-Oct-13 08:10N 29°03' W 095°13'2 5.4
2017-Oct-13 07:53N 29°04' W 095°13'32 4.8
2017-Oct-13 01:16N 29°31' W 094°53'2 6.9
2017-Oct-13 01:01N 29°32' W 094°54'3 6.9
2017-Oct-13 00:31N 29°35' W 094°56'3 6.8
2017-Oct-13 00:00N 29°38' W 094°58'4 7.5
2017-Oct-12 23:31N 29°42' W 094°60'3 6.2
2017-Oct-12 23:00N 29°44' W 095°03'5 5.4
2017-Oct-12 22:07N 29°44' W 095°08'1 7.2
2017-Oct-12 21:59N 29°44' W 095°09'4 6.1
2017-Oct-12 21:18N 29°43' W 095°14'2 6.0
2017-Oct-12 21:00N 29°44' W 095°16'0 0.8
2017-Oct-12 20:29N 29°43' W 095°16'0 0.1
2017-Oct-12 20:01N 29°43' W 095°16'0 0.0
2017-Oct-12 19:30N 29°43' W 095°16'0 0.2
2017-Oct-12 18:58N 29°43' W 095°16'0 0.0
2017-Oct-12 18:30N 29°43' W 095°16'0 0.0
2017-Oct-12 17:53N 29°43' W 095°16'0 0.0
2017-Oct-12 17:27N 29°43' W 095°16'0 0.0
2017-Oct-12 16:41N 29°43' W 095°16'0 0.0
2017-Oct-12 16:27N 29°43' W 095°16'0 0.0
2017-Oct-12 15:23N 29°43' W 095°16'0 0.0
2017-Oct-12 14:56N 29°43' W 095°16'0 0.0
2017-Oct-12 14:26N 29°43' W 095°16'0 0.0
2017-Oct-12 13:53N 29°43' W 095°16'0 0.0
2017-Oct-12 13:17N 29°43' W 095°16'0 0.0
2017-Oct-12 12:56N 29°43' W 095°16'0 0.0
2017-Oct-12 12:22N 29°43' W 095°16'0 0.0
2017-Oct-12 11:55N 29°43' W 095°16'0 0.0
2017-Oct-12 11:30N 29°43' W 095°16'0 0.0
2017-Oct-12 10:59N 29°43' W 095°16'0 0.0
2017-Oct-12 10:30N 29°43' W 095°16'0 0.0
2017-Oct-12 09:59N 29°43' W 095°16'0 0.0
2017-Oct-12 09:25N 29°43' W 095°16'0 0.0
2017-Oct-12 08:59N 29°43' W 095°16'0 0.0
2017-Oct-12 08:27N 29°43' W 095°16'0 0.0
2017-Oct-12 07:45N 29°43' W 095°16'0 0.0
2017-Oct-12 07:25N 29°43' W 095°16'0 0.0
2017-Oct-12 06:59N 29°43' W 095°16'0 0.0
2017-Oct-12 06:30N 29°43' W 095°16'0 0.0
2017-Oct-12 06:00N 29°43' W 095°16'0 0.0
2017-Oct-12 05:30N 29°43' W 095°16'0 0.0
2017-Oct-12 05:00N 29°43' W 095°16'0 0.2
2017-Oct-12 04:30N 29°43' W 095°16'0 0.0
2017-Oct-12 04:00N 29°43' W 095°16'0 0.0
2017-Oct-12 03:30N 29°43' W 095°16'0 0.0
2017-Oct-12 03:00N 29°43' W 095°16'0 0.0
2017-Oct-12 02:30N 29°43' W 095°16'0 0.0
2017-Oct-12 02:00N 29°43' W 095°16'0 0.0
2017-Oct-12 01:31N 29°43' W 095°16'0 0.0
2017-Oct-12 00:59N 29°43' W 095°16'0 0.0
2017-Oct-12 00:30N 29°43' W 095°16'0 0.0
2017-Oct-12 00:00N 29°43' W 095°16'0 0.0
2017-Oct-11 23:30N 29°43' W 095°16'0 0.0
2017-Oct-11 22:59N 29°43' W 095°16'0 0.0
2017-Oct-11 21:59N 29°43' W 095°16'0 0.2
2017-Oct-11 21:30N 29°43' W 095°16'0 0.1
2017-Oct-11 19:55N 29°43' W 095°16'0 0.0
2017-Oct-11 19:28N 29°43' W 095°16'0 0.0
2017-Oct-11 18:48N 29°43' W 095°16'0 0.6
2017-Oct-11 18:30N 29°43' W 095°16'23 0.5
2017-Oct-09 20:09N 29°32' W 094°53'  

Dump ship's entire track history